sensor_id;sensor_type;location;lat;lon;timestamp;P1;durP1;ratioP1;P2;durP2;ratioP2
18308;SDS011;9280;50.276;18.650;2022-07-01T00:02:39;1043.47;;;552.43;;
18308;SDS011;9280;50.276;18.650;2022-07-01T00:05:25;1021.30;;;532.00;;
18308;SDS011;9280;50.276;18.650;2022-07-01T00:08:11;1032.87;;;548.90;;
18308;SDS011;9280;50.276;18.650;2022-07-01T00:10:56;1031.63;;;554.20;;
18308;SDS011;9280;50.276;18.650;2022-07-01T00:13:42;1036.70;;;552.93;;
18308;SDS011;9280;50.276;18.650;2022-07-01T00:16:29;1030.60;;;545.50;;
18308;SDS011;9280;50.276;18.650;2022-07-01T00:19:15;1036.37;;;547.73;;
18308;SDS011;9280;50.276;18.650;2022-07-01T00:22:01;1036.53;;;544.70;;
18308;SDS011;9280;50.276;18.650;2022-07-01T00:24:47;1039.00;;;544.17;;
18308;SDS011;9280;50.276;18.650;2022-07-01T00:27:33;1034.40;;;532.93;;
18308;SDS011;9280;50.276;18.650;2022-07-01T00:30:21;1033.57;;;544.90;;
18308;SDS011;9280;50.276;18.650;2022-07-01T00:33:08;1027.47;;;534.57;;
18308;SDS011;9280;50.276;18.650;2022-07-01T00:35:54;1040.47;;;542.20;;
18308;SDS011;9280;50.276;18.650;2022-07-01T00:38:40;1034.80;;;536.20;;
18308;SDS011;9280;50.276;18.650;2022-07-01T00:41:25;1030.27;;;523.93;;
18308;SDS011;9280;50.276;18.650;2022-07-01T00:44:15;1027.97;;;531.03;;
18308;SDS011;9280;50.276;18.650;2022-07-01T00:47:02;1039.60;;;534.00;;
18308;SDS011;9280;50.276;18.650;2022-07-01T00:49:50;1050.33;;;538.70;;
18308;SDS011;9280;50.276;18.650;2022-07-01T00:52:36;1028.23;;;529.33;;
18308;SDS011;9280;50.276;18.650;2022-07-01T00:55:23;1035.07;;;535.80;;
18308;SDS011;9280;50.276;18.650;2022-07-01T00:58:09;1022.67;;;521.07;;
18308;SDS011;9280;50.276;18.650;2022-07-01T01:00:55;1035.40;;;530.10;;
18308;SDS011;9280;50.276;18.650;2022-07-01T01:03:42;1036.63;;;527.13;;
18308;SDS011;9280;50.276;18.650;2022-07-01T01:06:30;697.10;;;353.37;;
18308;SDS011;9280;50.276;18.650;2022-07-01T01:09:15;1037.70;;;529.23;;
18308;SDS011;9280;50.276;18.650;2022-07-01T01:12:01;1036.00;;;528.47;;
18308;SDS011;9280;50.276;18.650;2022-07-01T01:14:47;1048.93;;;532.30;;
18308;SDS011;9280;50.276;18.650;2022-07-01T01:17:34;750.07;;;371.83;;
18308;SDS011;9280;50.276;18.650;2022-07-01T01:20:22;1036.83;;;523.00;;
18308;SDS011;9280;50.276;18.650;2022-07-01T01:23:10;1026.60;;;524.13;;
18308;SDS011;9280;50.276;18.650;2022-07-01T01:25:56;1040.43;;;515.80;;
18308;SDS011;9280;50.276;18.650;2022-07-01T01:28:41;1031.33;;;522.37;;
18308;SDS011;9280;50.276;18.650;2022-07-01T01:31:27;1030.90;;;521.60;;
18308;SDS011;9280;50.276;18.650;2022-07-01T01:34:14;1028.83;;;521.63;;
18308;SDS011;9280;50.276;18.650;2022-07-01T01:37:00;1038.13;;;516.80;;
18308;SDS011;9280;50.276;18.650;2022-07-01T01:39:47;1032.27;;;518.43;;
18308;SDS011;9280;50.276;18.650;2022-07-01T01:42:33;1039.20;;;519.33;;
18308;SDS011;9280;50.276;18.650;2022-07-01T01:45:19;746.50;;;372.37;;
18308;SDS011;9280;50.276;18.650;2022-07-01T01:48:05;1028.33;;;493.97;;
18308;SDS011;9280;50.276;18.650;2022-07-01T01:50:51;1036.03;;;517.70;;
18308;SDS011;9280;50.276;18.650;2022-07-01T01:53:37;1034.93;;;506.60;;
18308;SDS011;9280;50.276;18.650;2022-07-01T01:56:24;1044.03;;;520.53;;
18308;SDS011;9280;50.276;18.650;2022-07-01T01:59:10;1030.43;;;514.57;;
18308;SDS011;9280;50.276;18.650;2022-07-01T02:01:57;1028.90;;;510.93;;
18308;SDS011;9280;50.276;18.650;2022-07-01T02:04:42;1028.43;;;513.07;;
18308;SDS011;9280;50.276;18.650;2022-07-01T02:07:28;716.80;;;351.40;;
18308;SDS011;9280;50.276;18.650;2022-07-01T02:10:13;1023.20;;;504.97;;
18308;SDS011;9280;50.276;18.650;2022-07-01T02:13:00;1032.83;;;511.70;;
18308;SDS011;9280;50.276;18.650;2022-07-01T02:15:46;1027.63;;;510.83;;
18308;SDS011;9280;50.276;18.650;2022-07-01T02:18:33;1032.53;;;504.03;;
18308;SDS011;9280;50.276;18.650;2022-07-01T02:21:18;1028.97;;;508.70;;
18308;SDS011;9280;50.276;18.650;2022-07-01T02:24:04;1026.97;;;503.43;;
18308;SDS011;9280;50.276;18.650;2022-07-01T02:26:51;1029.73;;;509.27;;
18308;SDS011;9280;50.276;18.650;2022-07-01T02:29:38;1025.93;;;503.47;;
18308;SDS011;9280;50.276;18.650;2022-07-01T02:32:25;1028.37;;;498.10;;
18308;SDS011;9280;50.276;18.650;2022-07-01T02:35:11;1024.83;;;500.90;;
18308;SDS011;9280;50.276;18.650;2022-07-01T02:37:57;691.37;;;330.37;;
18308;SDS011;9280;50.276;18.650;2022-07-01T02:40:43;742.53;;;351.10;;
18308;SDS011;9280;50.276;18.650;2022-07-01T02:43:29;1029.40;;;491.57;;
18308;SDS011;9280;50.276;18.650;2022-07-01T02:46:16;1040.07;;;504.40;;
18308;SDS011;9280;50.276;18.650;2022-07-01T02:49:02;1032.23;;;494.47;;
18308;SDS011;9280;50.276;18.650;2022-07-01T02:51:48;1037.47;;;502.57;;
18308;SDS011;9280;50.276;18.650;2022-07-01T02:54:36;1022.77;;;499.20;;
18308;SDS011;9280;50.276;18.650;2022-07-01T02:57:22;725.90;;;345.20;;
18308;SDS011;9280;50.276;18.650;2022-07-01T03:00:09;735.73;;;349.37;;
18308;SDS011;9280;50.276;18.650;2022-07-01T03:02:59;744.87;;;349.27;;
18308;SDS011;9280;50.276;18.650;2022-07-01T03:05:44;1026.55;;;489.13;;
18308;SDS011;9280;50.276;18.650;2022-07-01T03:08:31;1024.40;;;490.30;;
18308;SDS011;9280;50.276;18.650;2022-07-01T03:11:16;1021.07;;;490.90;;
18308;SDS011;9280;50.276;18.650;2022-07-01T03:14:02;738.87;;;349.67;;
18308;SDS011;9280;50.276;18.650;2022-07-01T03:16:48;1020.17;;;488.00;;
18308;SDS011;9280;50.276;18.650;2022-07-01T03:19:35;1030.63;;;495.07;;
18308;SDS011;9280;50.276;18.650;2022-07-01T03:22:22;723.07;;;346.70;;
18308;SDS011;9280;50.276;18.650;2022-07-01T03:25:08;1018.93;;;488.20;;
18308;SDS011;9280;50.276;18.650;2022-07-01T03:27:54;1033.13;;;501.67;;
18308;SDS011;9280;50.276;18.650;2022-07-01T03:30:41;1025.20;;;493.47;;
18308;SDS011;9280;50.276;18.650;2022-07-01T03:33:26;1027.10;;;497.23;;
18308;SDS011;9280;50.276;18.650;2022-07-01T03:36:13;1023.37;;;500.27;;
18308;SDS011;9280;50.276;18.650;2022-07-01T03:38:59;1027.17;;;501.57;;
18308;SDS011;9280;50.276;18.650;2022-07-01T03:41:49;1024.77;;;496.53;;
18308;SDS011;9280;50.276;18.650;2022-07-01T03:44:35;1018.03;;;491.53;;
18308;SDS011;9280;50.276;18.650;2022-07-01T03:47:21;1026.30;;;501.53;;
18308;SDS011;9280;50.276;18.650;2022-07-01T03:50:07;1017.20;;;497.27;;
18308;SDS011;9280;50.276;18.650;2022-07-01T03:52:55;1025.27;;;503.23;;
18308;SDS011;9280;50.276;18.650;2022-07-01T03:55:59;1029.97;;;497.07;;
18308;SDS011;9280;50.276;18.650;2022-07-01T03:58:45;1030.43;;;496.17;;
18308;SDS011;9280;50.276;18.650;2022-07-01T04:01:31;1018.87;;;482.17;;
18308;SDS011;9280;50.276;18.650;2022-07-01T04:04:17;1027.80;;;491.38;;
18308;SDS011;9280;50.276;18.650;2022-07-01T04:07:04;1032.07;;;491.25;;
18308;SDS011;9280;50.276;18.650;2022-07-01T04:09:53;1033.50;;;494.85;;
18308;SDS011;9280;50.276;18.650;2022-07-01T04:12:39;718.07;;;339.10;;
18308;SDS011;9280;50.276;18.650;2022-07-01T04:15:24;1026.90;;;491.60;;
18308;SDS011;9280;50.276;18.650;2022-07-01T04:18:10;1022.63;;;488.77;;
18308;SDS011;9280;50.276;18.650;2022-07-01T04:20:56;1037.87;;;506.53;;
18308;SDS011;9280;50.276;18.650;2022-07-01T04:24:00;1031.30;;;494.97;;
18308;SDS011;9280;50.276;18.650;2022-07-01T04:26:47;1034.27;;;512.03;;
18308;SDS011;9280;50.276;18.650;2022-07-01T04:29:33;752.43;;;369.93;;
18308;SDS011;9280;50.276;18.650;2022-07-01T04:32:18;1035.37;;;516.03;;
18308;SDS011;9280;50.276;18.650;2022-07-01T04:35:04;1038.40;;;521.43;;
18308;SDS011;9280;50.276;18.650;2022-07-01T04:37:51;1036.20;;;522.73;;
18308;SDS011;9280;50.276;18.650;2022-07-01T04:40:38;1038.17;;;518.00;;
18308;SDS011;9280;50.276;18.650;2022-07-01T04:43:26;719.87;;;356.87;;
18308;SDS011;9280;50.276;18.650;2022-07-01T04:46:11;1041.73;;;519.63;;
18308;SDS011;9280;50.276;18.650;2022-07-01T04:48:57;1036.00;;;522.70;;
18308;SDS011;9280;50.276;18.650;2022-07-01T04:51:42;1032.90;;;526.17;;
18308;SDS011;9280;50.276;18.650;2022-07-01T04:54:30;1038.23;;;523.87;;
18308;SDS011;9280;50.276;18.650;2022-07-01T04:57:16;1029.23;;;524.33;;
18308;SDS011;9280;50.276;18.650;2022-07-01T05:00:03;1040.40;;;534.00;;
18308;SDS011;9280;50.276;18.650;2022-07-01T05:02:49;1046.70;;;538.10;;
18308;SDS011;9280;50.276;18.650;2022-07-01T05:05:34;1056.03;;;550.53;;
18308;SDS011;9280;50.276;18.650;2022-07-01T05:08:20;1053.57;;;565.37;;
18308;SDS011;9280;50.276;18.650;2022-07-01T05:11:06;1039.30;;;538.57;;
18308;SDS011;9280;50.276;18.650;2022-07-01T05:13:53;1061.90;;;566.93;;
18308;SDS011;9280;50.276;18.650;2022-07-01T05:16:41;1050.83;;;565.57;;
18308;SDS011;9280;50.276;18.650;2022-07-01T05:19:27;1056.97;;;567.20;;
18308;SDS011;9280;50.276;18.650;2022-07-01T05:22:30;1063.33;;;573.30;;
18308;SDS011;9280;50.276;18.650;2022-07-01T05:25:16;767.43;;;419.63;;
18308;SDS011;9280;50.276;18.650;2022-07-01T05:28:02;1065.60;;;585.53;;
18308;SDS011;9280;50.276;18.650;2022-07-01T05:30:48;1055.77;;;583.90;;
18308;SDS011;9280;50.276;18.650;2022-07-01T05:33:35;1061.37;;;592.53;;
18308;SDS011;9280;50.276;18.650;2022-07-01T05:36:21;1057.33;;;600.60;;
18308;SDS011;9280;50.276;18.650;2022-07-01T05:39:07;1044.83;;;589.47;;
18308;SDS011;9280;50.276;18.650;2022-07-01T05:41:54;1050.37;;;598.97;;
18308;SDS011;9280;50.276;18.650;2022-07-01T05:44:39;1055.23;;;598.13;;
18308;SDS011;9280;50.276;18.650;2022-07-01T05:47:26;1055.27;;;603.90;;
18308;SDS011;9280;50.276;18.650;2022-07-01T05:50:13;1063.47;;;612.07;;
18308;SDS011;9280;50.276;18.650;2022-07-01T05:52:59;1074.47;;;627.00;;
18308;SDS011;9280;50.276;18.650;2022-07-01T05:55:46;1059.53;;;614.87;;
18308;SDS011;9280;50.276;18.650;2022-07-01T05:58:32;1085.67;;;629.67;;
18308;SDS011;9280;50.276;18.650;2022-07-01T06:01:18;762.60;;;431.97;;
18308;SDS011;9280;50.276;18.650;2022-07-01T06:04:04;1061.50;;;615.30;;
18308;SDS011;9280;50.276;18.650;2022-07-01T06:06:51;1082.30;;;649.70;;
18308;SDS011;9280;50.276;18.650;2022-07-01T06:09:37;1086.50;;;654.13;;
18308;SDS011;9280;50.276;18.650;2022-07-01T06:12:23;1070.93;;;635.87;;
18308;SDS011;9280;50.276;18.650;2022-07-01T06:15:09;1066.10;;;636.30;;
18308;SDS011;9280;50.276;18.650;2022-07-01T06:17:57;1069.50;;;651.00;;
18308;SDS011;9280;50.276;18.650;2022-07-01T06:20:43;1078.50;;;662.27;;
18308;SDS011;9280;50.276;18.650;2022-07-01T06:23:30;1077.33;;;656.00;;
18308;SDS011;9280;50.276;18.650;2022-07-01T06:26:16;1073.70;;;661.00;;
18308;SDS011;9280;50.276;18.650;2022-07-01T06:29:02;1063.13;;;648.13;;
18308;SDS011;9280;50.276;18.650;2022-07-01T06:31:48;1067.67;;;659.37;;
18308;SDS011;9280;50.276;18.650;2022-07-01T06:34:34;1069.83;;;651.40;;
18308;SDS011;9280;50.276;18.650;2022-07-01T06:37:20;1062.77;;;654.40;;
18308;SDS011;9280;50.276;18.650;2022-07-01T06:40:08;1061.23;;;652.47;;
18308;SDS011;9280;50.276;18.650;2022-07-01T06:42:54;1079.80;;;674.70;;
18308;SDS011;9280;50.276;18.650;2022-07-01T06:45:39;1070.77;;;665.40;;
18308;SDS011;9280;50.276;18.650;2022-07-01T06:48:24;1055.67;;;654.13;;
18308;SDS011;9280;50.276;18.650;2022-07-01T06:51:10;1074.83;;;674.10;;
18308;SDS011;9280;50.276;18.650;2022-07-01T06:53:56;1082.67;;;685.40;;
18308;SDS011;9280;50.276;18.650;2022-07-01T06:56:44;1076.60;;;680.40;;
18308;SDS011;9280;50.276;18.650;2022-07-01T06:59:29;1074.50;;;681.10;;
18308;SDS011;9280;50.276;18.650;2022-07-01T07:02:15;1083.37;;;692.97;;
18308;SDS011;9280;50.276;18.650;2022-07-01T07:05:01;1086.67;;;689.00;;
18308;SDS011;9280;50.276;18.650;2022-07-01T07:07:46;1083.30;;;700.03;;
18308;SDS011;9280;50.276;18.650;2022-07-01T07:10:32;1085.87;;;696.57;;
18308;SDS011;9280;50.276;18.650;2022-07-01T07:13:19;1093.37;;;695.30;;
18308;SDS011;9280;50.276;18.650;2022-07-01T07:16:05;1083.00;;;698.10;;
18308;SDS011;9280;50.276;18.650;2022-07-01T07:18:51;1085.03;;;706.27;;
18308;SDS011;9280;50.276;18.650;2022-07-01T07:21:37;1081.00;;;689.00;;
18308;SDS011;9280;50.276;18.650;2022-07-01T07:24:23;1085.00;;;707.63;;
18308;SDS011;9280;50.276;18.650;2022-07-01T07:27:08;1115.70;;;729.17;;
18308;SDS011;9280;50.276;18.650;2022-07-01T07:29:55;1084.53;;;714.03;;
18308;SDS011;9280;50.276;18.650;2022-07-01T07:32:41;1087.20;;;708.77;;
18308;SDS011;9280;50.276;18.650;2022-07-01T07:35:27;1089.50;;;699.07;;
18308;SDS011;9280;50.276;18.650;2022-07-01T07:38:13;1085.77;;;711.57;;
18308;SDS011;9280;50.276;18.650;2022-07-01T07:40:58;1092.43;;;729.83;;
18308;SDS011;9280;50.276;18.650;2022-07-01T07:43:47;1082.57;;;706.77;;
18308;SDS011;9280;50.276;18.650;2022-07-01T07:46:35;1098.97;;;731.80;;
18308;SDS011;9280;50.276;18.650;2022-07-01T07:49:20;1095.60;;;716.97;;
18308;SDS011;9280;50.276;18.650;2022-07-01T07:52:06;1084.27;;;710.90;;
18308;SDS011;9280;50.276;18.650;2022-07-01T07:54:52;1102.87;;;728.07;;
18308;SDS011;9280;50.276;18.650;2022-07-01T07:57:38;1082.93;;;716.27;;
18308;SDS011;9280;50.276;18.650;2022-07-01T08:00:24;1100.10;;;718.80;;
18308;SDS011;9280;50.276;18.650;2022-07-01T08:03:13;511.40;;;317.17;;
18308;SDS011;9280;50.276;18.650;2022-07-01T08:05:58;1081.17;;;712.37;;
18308;SDS011;9280;50.276;18.650;2022-07-01T08:08:44;1087.57;;;714.87;;
18308;SDS011;9280;50.276;18.650;2022-07-01T08:11:30;1083.53;;;704.97;;
18308;SDS011;9280;50.276;18.650;2022-07-01T08:14:15;1079.27;;;711.90;;
18308;SDS011;9280;50.276;18.650;2022-07-01T08:17:01;1085.00;;;708.13;;
18308;SDS011;9280;50.276;18.650;2022-07-01T08:19:48;1078.57;;;703.43;;
18308;SDS011;9280;50.276;18.650;2022-07-01T08:22:34;1084.27;;;711.47;;
18308;SDS011;9280;50.276;18.650;2022-07-01T08:25:19;1099.53;;;722.23;;
18308;SDS011;9280;50.276;18.650;2022-07-01T08:28:06;1078.37;;;712.93;;
18308;SDS011;9280;50.276;18.650;2022-07-01T08:30:51;750.27;;;484.10;;
18308;SDS011;9280;50.276;18.650;2022-07-01T08:33:37;1084.93;;;720.80;;
18308;SDS011;9280;50.276;18.650;2022-07-01T08:36:24;1095.67;;;720.90;;
18308;SDS011;9280;50.276;18.650;2022-07-01T08:39:10;755.40;;;495.57;;
18308;SDS011;9280;50.276;18.650;2022-07-01T08:41:55;1106.57;;;738.73;;
18308;SDS011;9280;50.276;18.650;2022-07-01T08:44:41;1092.90;;;736.10;;
18308;SDS011;9280;50.276;18.650;2022-07-01T08:47:26;1091.07;;;732.60;;
18308;SDS011;9280;50.276;18.650;2022-07-01T08:50:12;1094.03;;;743.93;;
18308;SDS011;9280;50.276;18.650;2022-07-01T08:53:00;1111.97;;;755.60;;
18308;SDS011;9280;50.276;18.650;2022-07-01T08:55:46;1091.87;;;741.57;;
18308;SDS011;9280;50.276;18.650;2022-07-01T08:58:50;1106.53;;;762.70;;
18308;SDS011;9280;50.276;18.650;2022-07-01T09:01:35;1100.73;;;756.03;;
18308;SDS011;9280;50.276;18.650;2022-07-01T09:04:22;1093.03;;;745.90;;
18308;SDS011;9280;50.276;18.650;2022-07-01T09:07:08;1097.10;;;762.30;;
18308;SDS011;9280;50.276;18.650;2022-07-01T09:09:56;1103.20;;;751.00;;
18308;SDS011;9280;50.276;18.650;2022-07-01T09:12:57;1103.33;;;764.77;;
18308;SDS011;9280;50.276;18.650;2022-07-01T09:15:49;1104.47;;;762.23;;
18308;SDS011;9280;50.276;18.650;2022-07-01T09:18:35;1096.73;;;748.93;;
18308;SDS011;9280;50.276;18.650;2022-07-01T09:21:27;1101.10;;;764.83;;
18308;SDS011;9280;50.276;18.650;2022-07-01T09:24:26;1095.10;;;763.37;;
18308;SDS011;9280;50.276;18.650;2022-07-01T09:27:16;1099.50;;;758.83;;
18308;SDS011;9280;50.276;18.650;2022-07-01T09:30:01;1103.73;;;766.00;;
18308;SDS011;9280;50.276;18.650;2022-07-01T09:33:03;1107.33;;;765.03;;
18308;SDS011;9280;50.276;18.650;2022-07-01T09:35:50;1113.57;;;769.93;;
18308;SDS011;9280;50.276;18.650;2022-07-01T09:38:44;1100.03;;;758.67;;
18308;SDS011;9280;50.276;18.650;2022-07-01T09:41:35;1109.77;;;762.20;;
18308;SDS011;9280;50.276;18.650;2022-07-01T09:44:23;1093.70;;;755.70;;
18308;SDS011;9280;50.276;18.650;2022-07-01T09:47:09;1104.80;;;772.07;;
18308;SDS011;9280;50.276;18.650;2022-07-01T09:49:55;1105.67;;;769.50;;
18308;SDS011;9280;50.276;18.650;2022-07-01T09:52:41;1109.93;;;781.40;;
18308;SDS011;9280;50.276;18.650;2022-07-01T09:55:27;1101.63;;;770.57;;
18308;SDS011;9280;50.276;18.650;2022-07-01T09:58:12;1095.47;;;755.53;;
18308;SDS011;9280;50.276;18.650;2022-07-01T10:00:59;1106.50;;;771.43;;
18308;SDS011;9280;50.276;18.650;2022-07-01T10:03:46;1106.50;;;772.80;;
18308;SDS011;9280;50.276;18.650;2022-07-01T10:06:45;1112.27;;;781.50;;
18308;SDS011;9280;50.276;18.650;2022-07-01T10:09:56;1119.10;;;781.73;;
18308;SDS011;9280;50.276;18.650;2022-07-01T10:13:05;1117.37;;;782.00;;
18308;SDS011;9280;50.276;18.650;2022-07-01T10:15:52;1111.63;;;774.13;;
18308;SDS011;9280;50.276;18.650;2022-07-01T10:18:42;1120.07;;;775.63;;
18308;SDS011;9280;50.276;18.650;2022-07-01T10:21:28;1110.77;;;775.07;;
18308;SDS011;9280;50.276;18.650;2022-07-01T10:24:16;1104.53;;;768.37;;
18308;SDS011;9280;50.276;18.650;2022-07-01T10:27:09;1104.40;;;768.00;;
18308;SDS011;9280;50.276;18.650;2022-07-01T10:30:14;1117.07;;;792.70;;
18308;SDS011;9280;50.276;18.650;2022-07-01T10:33:01;1093.90;;;767.60;;
18308;SDS011;9280;50.276;18.650;2022-07-01T10:35:48;1093.43;;;773.30;;
18308;SDS011;9280;50.276;18.650;2022-07-01T10:38:34;1095.53;;;766.27;;
18308;SDS011;9280;50.276;18.650;2022-07-01T10:41:23;1106.50;;;770.80;;
18308;SDS011;9280;50.276;18.650;2022-07-01T10:44:10;1093.07;;;766.57;;
18308;SDS011;9280;50.276;18.650;2022-07-01T10:47:01;1106.70;;;786.90;;
18308;SDS011;9280;50.276;18.650;2022-07-01T10:49:59;1107.30;;;781.47;;
18308;SDS011;9280;50.276;18.650;2022-07-01T10:53:01;1121.20;;;801.37;;
18308;SDS011;9280;50.276;18.650;2022-07-01T10:55:49;1119.47;;;806.13;;
18308;SDS011;9280;50.276;18.650;2022-07-01T10:58:36;1106.33;;;789.63;;
18308;SDS011;9280;50.276;18.650;2022-07-01T11:01:23;798.60;;;565.80;;
18308;SDS011;9280;50.276;18.650;2022-07-01T11:04:08;1116.57;;;803.20;;
18308;SDS011;9280;50.276;18.650;2022-07-01T11:06:58;1128.67;;;805.90;;
18308;SDS011;9280;50.276;18.650;2022-07-01T11:09:46;1106.90;;;790.97;;
18308;SDS011;9280;50.276;18.650;2022-07-01T11:12:31;1112.47;;;798.57;;
18308;SDS011;9280;50.276;18.650;2022-07-01T11:15:17;1105.07;;;794.73;;
18308;SDS011;9280;50.276;18.650;2022-07-01T11:18:04;1105.80;;;795.90;;
18308;SDS011;9280;50.276;18.650;2022-07-01T11:20:50;1115.23;;;800.20;;
18308;SDS011;9280;50.276;18.650;2022-07-01T11:23:35;1119.63;;;803.10;;
18308;SDS011;9280;50.276;18.650;2022-07-01T11:26:23;1128.93;;;816.13;;
18308;SDS011;9280;50.276;18.650;2022-07-01T11:29:09;1102.57;;;794.37;;
18308;SDS011;9280;50.276;18.650;2022-07-01T11:31:55;1123.13;;;817.97;;
18308;SDS011;9280;50.276;18.650;2022-07-01T11:34:41;1110.77;;;799.33;;
18308;SDS011;9280;50.276;18.650;2022-07-01T11:37:27;1118.53;;;809.53;;
18308;SDS011;9280;50.276;18.650;2022-07-01T11:40:31;1121.53;;;804.20;;
18308;SDS011;9280;50.276;18.650;2022-07-01T11:43:19;786.67;;;557.93;;
18308;SDS011;9280;50.276;18.650;2022-07-01T11:46:06;1111.97;;;811.13;;
18308;SDS011;9280;50.276;18.650;2022-07-01T11:48:53;1114.07;;;809.77;;
18308;SDS011;9280;50.276;18.650;2022-07-01T11:51:40;1115.20;;;799.57;;
18308;SDS011;9280;50.276;18.650;2022-07-01T11:54:27;1123.40;;;812.63;;
18308;SDS011;9280;50.276;18.650;2022-07-01T11:57:13;1115.37;;;811.13;;
18308;SDS011;9280;50.276;18.650;2022-07-01T12:00:08;1123.97;;;811.33;;
18308;SDS011;9280;50.276;18.650;2022-07-01T12:02:56;498.43;;;345.13;;
18308;SDS011;9280;50.276;18.650;2022-07-01T12:05:42;1123.60;;;816.40;;
18308;SDS011;9280;50.276;18.650;2022-07-01T12:08:28;1114.27;;;802.07;;
18308;SDS011;9280;50.276;18.650;2022-07-01T12:11:14;1111.50;;;812.43;;
18308;SDS011;9280;50.276;18.650;2022-07-01T12:14:01;1128.57;;;827.20;;
18308;SDS011;9280;50.276;18.650;2022-07-01T12:16:50;1126.47;;;829.87;;
18308;SDS011;9280;50.276;18.650;2022-07-01T12:19:37;1114.30;;;819.23;;
18308;SDS011;9280;50.276;18.650;2022-07-01T12:22:24;1120.70;;;834.20;;
18308;SDS011;9280;50.276;18.650;2022-07-01T12:25:12;1123.23;;;837.47;;
18308;SDS011;9280;50.276;18.650;2022-07-01T12:28:02;1146.17;;;841.20;;
18308;SDS011;9280;50.276;18.650;2022-07-01T12:30:47;1135.57;;;852.47;;
18308;SDS011;9280;50.276;18.650;2022-07-01T12:33:35;1152.53;;;865.80;;
18308;SDS011;9280;50.276;18.650;2022-07-01T12:36:22;1167.17;;;871.90;;
18308;SDS011;9280;50.276;18.650;2022-07-01T12:39:08;1135.53;;;852.83;;
18308;SDS011;9280;50.276;18.650;2022-07-01T12:41:54;1147.83;;;860.67;;
18308;SDS011;9280;50.276;18.650;2022-07-01T12:44:44;1142.80;;;870.13;;
18308;SDS011;9280;50.276;18.650;2022-07-01T12:47:31;1150.53;;;882.70;;
18308;SDS011;9280;50.276;18.650;2022-07-01T12:50:19;1156.63;;;889.93;;
18308;SDS011;9280;50.276;18.650;2022-07-01T12:53:07;1145.03;;;868.87;;
18308;SDS011;9280;50.276;18.650;2022-07-01T12:55:54;1156.20;;;885.63;;
18308;SDS011;9280;50.276;18.650;2022-07-01T12:58:41;1161.67;;;880.50;;
18308;SDS011;9280;50.276;18.650;2022-07-01T13:01:27;1145.47;;;868.37;;
18308;SDS011;9280;50.276;18.650;2022-07-01T13:04:13;1162.97;;;890.37;;
18308;SDS011;9280;50.276;18.650;2022-07-01T13:07:00;1151.07;;;881.43;;
18308;SDS011;9280;50.276;18.650;2022-07-01T13:09:45;1161.07;;;883.53;;
18308;SDS011;9280;50.276;18.650;2022-07-01T13:12:31;1162.63;;;897.87;;
18308;SDS011;9280;50.276;18.650;2022-07-01T13:15:17;1150.47;;;885.37;;
18308;SDS011;9280;50.276;18.650;2022-07-01T13:18:04;1167.17;;;902.77;;
18308;SDS011;9280;50.276;18.650;2022-07-01T13:20:51;1184.17;;;899.83;;
18308;SDS011;9280;50.276;18.650;2022-07-01T13:23:38;1161.03;;;902.77;;
18308;SDS011;9280;50.276;18.650;2022-07-01T13:26:24;1185.03;;;917.67;;
18308;SDS011;9280;50.276;18.650;2022-07-01T13:29:10;1164.53;;;910.97;;
18308;SDS011;9280;50.276;18.650;2022-07-01T13:31:55;1183.37;;;930.13;;
18308;SDS011;9280;50.276;18.650;2022-07-01T13:34:41;1205.83;;;937.90;;
18308;SDS011;9280;50.276;18.650;2022-07-01T13:37:26;1194.27;;;942.93;;
18308;SDS011;9280;50.276;18.650;2022-07-01T13:40:14;1181.17;;;938.80;;
18308;SDS011;9280;50.276;18.650;2022-07-01T13:43:00;1192.57;;;952.10;;
18308;SDS011;9280;50.276;18.650;2022-07-01T13:45:45;1202.90;;;965.07;;
18308;SDS011;9280;50.276;18.650;2022-07-01T13:48:31;1190.07;;;955.67;;
18308;SDS011;9280;50.276;18.650;2022-07-01T13:51:17;1204.47;;;971.47;;
18308;SDS011;9280;50.276;18.650;2022-07-01T13:54:03;1194.07;;;962.33;;
18308;SDS011;9280;50.276;18.650;2022-07-01T13:56:50;1222.73;;;979.50;;
18308;SDS011;9280;50.276;18.650;2022-07-01T13:59:35;1193.27;;;956.87;;
18308;SDS011;9280;50.276;18.650;2022-07-01T14:02:21;1198.00;;;970.57;;
18308;SDS011;9280;50.276;18.650;2022-07-01T14:05:06;1210.13;;;983.03;;
18308;SDS011;9280;50.276;18.650;2022-07-01T14:07:52;1218.50;;;995.77;;
18308;SDS011;9280;50.276;18.650;2022-07-01T14:10:38;1215.10;;;990.53;;
18308;SDS011;9280;50.276;18.650;2022-07-01T14:13:27;1214.77;;;992.97;;
18308;SDS011;9280;50.276;18.650;2022-07-01T14:16:12;1310.23;;;999.90;;
18308;SDS011;9280;50.276;18.650;2022-07-01T14:18:58;1211.10;;;992.23;;
18308;SDS011;9280;50.276;18.650;2022-07-01T14:21:44;1220.20;;;998.63;;
18308;SDS011;9280;50.276;18.650;2022-07-01T14:24:29;1208.97;;;993.23;;
18308;SDS011;9280;50.276;18.650;2022-07-01T14:27:15;1216.43;;;999.90;;
18308;SDS011;9280;50.276;18.650;2022-07-01T14:30:03;1239.97;;;999.90;;
18308;SDS011;9280;50.276;18.650;2022-07-01T14:32:50;1219.30;;;997.13;;
18308;SDS011;9280;50.276;18.650;2022-07-01T14:35:35;1212.80;;;995.03;;
18308;SDS011;9280;50.276;18.650;2022-07-01T14:38:21;1212.13;;;998.60;;
18308;SDS011;9280;50.276;18.650;2022-07-01T14:41:06;1204.97;;;988.87;;
18308;SDS011;9280;50.276;18.650;2022-07-01T14:43:52;1219.73;;;999.90;;
18308;SDS011;9280;50.276;18.650;2022-07-01T14:46:39;1215.97;;;998.57;;
18308;SDS011;9280;50.276;18.650;2022-07-01T14:49:24;1215.77;;;999.73;;
18308;SDS011;9280;50.276;18.650;2022-07-01T14:52:10;1214.17;;;994.77;;
18308;SDS011;9280;50.276;18.650;2022-07-01T14:54:55;1203.80;;;996.17;;
18308;SDS011;9280;50.276;18.650;2022-07-01T14:57:43;1226.73;;;999.90;;
18308;SDS011;9280;50.276;18.650;2022-07-01T15:00:29;1218.43;;;998.37;;
18308;SDS011;9280;50.276;18.650;2022-07-01T15:03:17;1229.40;;;999.90;;
18308;SDS011;9280;50.276;18.650;2022-07-01T15:06:03;1216.97;;;997.23;;
18308;SDS011;9280;50.276;18.650;2022-07-01T15:08:51;1217.77;;;997.93;;
18308;SDS011;9280;50.276;18.650;2022-07-01T15:11:40;1211.00;;;993.57;;
18308;SDS011;9280;50.276;18.650;2022-07-01T15:14:25;1206.23;;;982.93;;
18308;SDS011;9280;50.276;18.650;2022-07-01T15:17:13;1235.27;;;997.30;;
18308;SDS011;9280;50.276;18.650;2022-07-01T15:20:01;1193.87;;;967.07;;
18308;SDS011;9280;50.276;18.650;2022-07-01T15:22:47;1191.70;;;963.07;;
18308;SDS011;9280;50.276;18.650;2022-07-01T15:25:32;1193.23;;;969.20;;
18308;SDS011;9280;50.276;18.650;2022-07-01T15:28:18;1195.33;;;972.97;;
18308;SDS011;9280;50.276;18.650;2022-07-01T15:31:06;1206.93;;;978.10;;
18308;SDS011;9280;50.276;18.650;2022-07-01T15:33:52;1217.53;;;994.07;;
18308;SDS011;9280;50.276;18.650;2022-07-01T15:36:40;1233.43;;;999.90;;
18308;SDS011;9280;50.276;18.650;2022-07-01T15:39:26;1217.00;;;998.80;;